Etusivu
METAR-TAF:

METAR-TAF

Lentoasemat :

Vitsebskin lentoasema

Vitsebsk, Valko-Venäjä

Leveyspiiri: 55-10N, Pituuspiiri: 030-13E, korkeus merenpinnasta: 176 m

Tämänhetkinen sää

Tämä raportti tehtiin 5 tuntia ja 11 minuuttia sitten, kello 16.00 UTC
Tuuli 6 kn etelästä puuskistuen 12 kn:hen
Lämpötila 21°C
Kosteus 23%
Ilmanpaine 1026 hPa
Näkyvyys 10 km tai enemmän
ei pilviä alle 1500 m:ssä eikä cumulonimbus-pilviä

METAR: UMII 241600Z 17003G06MPS CAVOK 21/M01 Q1026 R23/D NOSIG

Aika: 00:11 (21:11 UTC)

Sääennuste

Tämä raportti tehtiin 7 tuntia ja 6 minuuttia sitten, kello 14.05 UTC
Ennuste voimassa 24. päivästä klo 15 UTC - 24. päivään klo 24 UTC
Tuuli 6 kn kaakosta puuskistuen 16 kn:hen
Näkyvyys 10 km tai enemmän
Hajanaisia pilviä 2000 ft:n korkeudessa
Ajoittain
24. päivästä klo 21 UTC - 24. päivään klo 24 UTC
Näkyvyys: 3000 m
utua

TAF: UMII 241405Z 2415/2424 14003G08MPS 9999 SCT020 TEMPO 2421/2424 3000 BR

Säähavainnot ja -ennusteet yli 4000 lentoasemalta (METAR- ja TAF-raportit).

Käytössä olevat sääasemat on merkitty karttaan keltaisilla ja punaisilla pisteillä.

Aseta hiiri pisteen päälle nähdäksesi sääaseman nimen.

Klikkaa sitten nähdäksesi säähavainnot ja -ennusteet.

Kartan vaihtaminen: klikkaa mustalla rastilla varustettuja vihreitä pisteitä, niin voit zoomata sisään; viivalla varustettua vihreää pistettä, niin voit zoomata ulos tai vihreitä nuolia, niin pääset viereisille kartoille.


METAR-TAF: